sensor_id;sensor_type;location;lat;lon;timestamp;P1;durP1;ratioP1;P2;durP2;ratioP2
51030;SDS011;37058;41.442;23.240;2022-10-31T00:01:12;11.43;;;6.63;;
51030;SDS011;37058;41.442;23.240;2022-10-31T00:03:52;9.90;;;5.60;;
51030;SDS011;37058;41.442;23.240;2022-10-31T00:06:19;10.53;;;5.90;;
51030;SDS011;37058;41.442;23.240;2022-10-31T00:08:47;8.87;;;5.63;;
51030;SDS011;37058;41.442;23.240;2022-10-31T00:11:19;9.03;;;5.53;;
51030;SDS011;37058;41.442;23.240;2022-10-31T00:13:45;10.63;;;6.33;;
51030;SDS011;37058;41.442;23.240;2022-10-31T00:16:14;9.70;;;5.90;;
51030;SDS011;37058;41.442;23.240;2022-10-31T00:18:42;8.47;;;5.87;;
51030;SDS011;37058;41.442;23.240;2022-10-31T00:21:09;7.63;;;5.30;;
51030;SDS011;37058;41.442;23.240;2022-10-31T00:23:35;10.73;;;6.73;;
51030;SDS011;37058;41.442;23.240;2022-10-31T00:26:01;11.43;;;6.43;;
51030;SDS011;37058;41.442;23.240;2022-10-31T00:28:28;10.90;;;6.43;;
51030;SDS011;37058;41.442;23.240;2022-10-31T00:30:58;12.20;;;6.13;;
51030;SDS011;37058;41.442;23.240;2022-10-31T00:33:28;11.00;;;6.53;;
51030;SDS011;37058;41.442;23.240;2022-10-31T00:35:55;11.27;;;6.07;;
51030;SDS011;37058;41.442;23.240;2022-10-31T00:38:21;12.33;;;6.97;;
51030;SDS011;37058;41.442;23.240;2022-10-31T00:40:47;9.27;;;7.07;;
51030;SDS011;37058;41.442;23.240;2022-10-31T00:43:13;10.17;;;6.20;;
51030;SDS011;37058;41.442;23.240;2022-10-31T00:45:40;9.80;;;7.17;;
51030;SDS011;37058;41.442;23.240;2022-10-31T00:48:07;10.67;;;5.50;;
51030;SDS011;37058;41.442;23.240;2022-10-31T00:50:34;8.27;;;5.60;;
51030;SDS011;37058;41.442;23.240;2022-10-31T00:53:00;12.03;;;5.57;;
51030;SDS011;37058;41.442;23.240;2022-10-31T00:55:26;9.40;;;5.87;;
51030;SDS011;37058;41.442;23.240;2022-10-31T00:57:52;9.80;;;5.33;;
51030;SDS011;37058;41.442;23.240;2022-10-31T01:00:17;7.70;;;5.47;;
51030;SDS011;37058;41.442;23.240;2022-10-31T01:02:43;10.23;;;5.60;;
51030;SDS011;37058;41.442;23.240;2022-10-31T01:05:09;11.83;;;6.60;;
51030;SDS011;37058;41.442;23.240;2022-10-31T01:07:36;9.40;;;5.57;;
51030;SDS011;37058;41.442;23.240;2022-10-31T01:10:02;9.83;;;5.97;;
51030;SDS011;37058;41.442;23.240;2022-10-31T01:12:29;18.13;;;6.43;;
51030;SDS011;37058;41.442;23.240;2022-10-31T01:15:00;8.57;;;6.00;;
51030;SDS011;37058;41.442;23.240;2022-10-31T01:17:26;12.13;;;5.57;;
51030;SDS011;37058;41.442;23.240;2022-10-31T01:19:52;9.30;;;6.10;;
51030;SDS011;37058;41.442;23.240;2022-10-31T01:22:18;8.53;;;5.97;;
51030;SDS011;37058;41.442;23.240;2022-10-31T01:24:44;10.17;;;5.73;;
51030;SDS011;37058;41.442;23.240;2022-10-31T01:27:10;9.93;;;5.73;;
51030;SDS011;37058;41.442;23.240;2022-10-31T01:29:35;14.07;;;6.43;;
51030;SDS011;37058;41.442;23.240;2022-10-31T01:32:01;11.43;;;6.33;;
51030;SDS011;37058;41.442;23.240;2022-10-31T01:34:27;12.97;;;7.07;;
51030;SDS011;37058;41.442;23.240;2022-10-31T01:36:53;10.17;;;6.20;;
51030;SDS011;37058;41.442;23.240;2022-10-31T01:39:19;10.60;;;6.17;;
51030;SDS011;37058;41.442;23.240;2022-10-31T01:41:46;13.57;;;6.43;;
51030;SDS011;37058;41.442;23.240;2022-10-31T01:46:55;11.80;;;5.97;;
51030;SDS011;37058;41.442;23.240;2022-10-31T01:54:39;9.90;;;5.83;;
51030;SDS011;37058;41.442;23.240;2022-10-31T01:57:11;13.60;;;5.87;;
51030;SDS011;37058;41.442;23.240;2022-10-31T01:59:40;11.83;;;7.00;;
51030;SDS011;37058;41.442;23.240;2022-10-31T02:02:12;13.10;;;6.60;;
51030;SDS011;37058;41.442;23.240;2022-10-31T02:04:40;11.90;;;6.03;;
51030;SDS011;37058;41.442;23.240;2022-10-31T02:07:16;11.30;;;7.27;;
51030;SDS011;37058;41.442;23.240;2022-10-31T02:09:51;8.23;;;6.03;;
51030;SDS011;37058;41.442;23.240;2022-10-31T02:12:20;13.43;;;5.87;;
51030;SDS011;37058;41.442;23.240;2022-10-31T02:14:46;11.37;;;6.63;;
51030;SDS011;37058;41.442;23.240;2022-10-31T02:17:12;9.97;;;6.37;;
51030;SDS011;37058;41.442;23.240;2022-10-31T02:29:08;18.27;;;6.83;;
51030;SDS011;37058;41.442;23.240;2022-10-31T02:34:17;9.50;;;6.10;;
51030;SDS011;37058;41.442;23.240;2022-10-31T02:37:19;10.63;;;6.43;;
51030;SDS011;37058;41.442;23.240;2022-10-31T02:48:30;11.40;;;5.77;;
51030;SDS011;37058;41.442;23.240;2022-10-31T02:51:01;8.63;;;6.00;;
51030;SDS011;37058;41.442;23.240;2022-10-31T02:53:35;16.43;;;8.20;;
51030;SDS011;37058;41.442;23.240;2022-10-31T02:56:12;11.67;;;7.47;;
51030;SDS011;37058;41.442;23.240;2022-10-31T02:58:51;14.10;;;7.63;;
51030;SDS011;37058;41.442;23.240;2022-10-31T03:01:30;12.23;;;8.97;;
51030;SDS011;37058;41.442;23.240;2022-10-31T03:07:11;9.50;;;5.43;;
51030;SDS011;37058;41.442;23.240;2022-10-31T03:10:21;8.90;;;5.68;;
51030;SDS011;37058;41.442;23.240;2022-10-31T03:16:38;9.73;;;5.63;;
51030;SDS011;37058;41.442;23.240;2022-10-31T03:24:36;13.13;;;6.23;;
51030;SDS011;37058;41.442;23.240;2022-10-31T03:27:04;9.30;;;6.53;;
51030;SDS011;37058;41.442;23.240;2022-10-31T03:29:33;10.77;;;5.93;;
51030;SDS011;37058;41.442;23.240;2022-10-31T03:32:02;10.30;;;6.90;;
51030;SDS011;37058;41.442;23.240;2022-10-31T03:34:41;10.02;;;6.65;;
51030;SDS011;37058;41.442;23.240;2022-10-31T03:37:10;14.20;;;6.87;;
51030;SDS011;37058;41.442;23.240;2022-10-31T03:39:43;11.93;;;7.33;;
51030;SDS011;37058;41.442;23.240;2022-10-31T03:42:11;9.23;;;5.87;;
51030;SDS011;37058;41.442;23.240;2022-10-31T03:44:53;8.20;;;5.93;;
51030;SDS011;37058;41.442;23.240;2022-10-31T03:47:33;8.27;;;6.00;;
51030;SDS011;37058;41.442;23.240;2022-10-31T03:50:02;14.37;;;6.63;;
51030;SDS011;37058;41.442;23.240;2022-10-31T03:57:59;9.67;;;5.47;;
51030;SDS011;37058;41.442;23.240;2022-10-31T04:00:33;10.73;;;7.17;;
51030;SDS011;37058;41.442;23.240;2022-10-31T04:03:16;12.18;;;5.38;;
51030;SDS011;37058;41.442;23.240;2022-10-31T04:05:49;11.87;;;6.27;;
51030;SDS011;37058;41.442;23.240;2022-10-31T04:08:19;11.30;;;6.43;;
51030;SDS011;37058;41.442;23.240;2022-10-31T04:10:49;10.70;;;7.07;;
51030;SDS011;37058;41.442;23.240;2022-10-31T04:13:28;10.63;;;6.50;;
51030;SDS011;37058;41.442;23.240;2022-10-31T04:15:58;11.55;;;6.95;;
51030;SDS011;37058;41.442;23.240;2022-10-31T04:18:24;11.83;;;7.30;;
51030;SDS011;37058;41.442;23.240;2022-10-31T04:21:12;10.57;;;6.07;;
51030;SDS011;37058;41.442;23.240;2022-10-31T04:23:37;16.77;;;7.23;;
51030;SDS011;37058;41.442;23.240;2022-10-31T04:26:03;10.20;;;6.80;;
51030;SDS011;37058;41.442;23.240;2022-10-31T04:28:29;19.87;;;11.70;;
51030;SDS011;37058;41.442;23.240;2022-10-31T04:30:55;16.37;;;7.97;;
51030;SDS011;37058;41.442;23.240;2022-10-31T04:33:21;18.90;;;8.23;;
51030;SDS011;37058;41.442;23.240;2022-10-31T04:35:47;10.00;;;7.30;;
51030;SDS011;37058;41.442;23.240;2022-10-31T04:38:13;9.70;;;7.43;;
51030;SDS011;37058;41.442;23.240;2022-10-31T04:40:39;14.87;;;8.77;;
51030;SDS011;37058;41.442;23.240;2022-10-31T04:43:04;13.90;;;8.37;;
51030;SDS011;37058;41.442;23.240;2022-10-31T04:45:30;13.77;;;8.40;;
51030;SDS011;37058;41.442;23.240;2022-10-31T04:47:56;15.63;;;8.70;;
51030;SDS011;37058;41.442;23.240;2022-10-31T04:50:22;14.03;;;8.00;;
51030;SDS011;37058;41.442;23.240;2022-10-31T04:52:48;16.30;;;9.17;;
51030;SDS011;37058;41.442;23.240;2022-10-31T04:55:14;12.37;;;6.83;;
51030;SDS011;37058;41.442;23.240;2022-10-31T04:57:43;10.90;;;7.57;;
51030;SDS011;37058;41.442;23.240;2022-10-31T05:00:15;11.97;;;6.67;;
51030;SDS011;37058;41.442;23.240;2022-10-31T05:02:45;19.05;;;7.10;;
51030;SDS011;37058;41.442;23.240;2022-10-31T05:05:13;11.17;;;6.17;;
51030;SDS011;37058;41.442;23.240;2022-10-31T05:07:42;9.00;;;6.10;;
51030;SDS011;37058;41.442;23.240;2022-10-31T05:10:10;11.37;;;6.70;;
51030;SDS011;37058;41.442;23.240;2022-10-31T05:12:44;15.50;;;7.90;;
51030;SDS011;37058;41.442;23.240;2022-10-31T05:15:25;10.93;;;6.73;;
51030;SDS011;37058;41.442;23.240;2022-10-31T05:17:53;10.90;;;7.07;;
51030;SDS011;37058;41.442;23.240;2022-10-31T05:20:22;8.87;;;6.63;;
51030;SDS011;37058;41.442;23.240;2022-10-31T05:22:52;13.03;;;7.00;;
51030;SDS011;37058;41.442;23.240;2022-10-31T05:25:20;9.47;;;6.43;;
51030;SDS011;37058;41.442;23.240;2022-10-31T05:27:49;11.07;;;7.20;;
51030;SDS011;37058;41.442;23.240;2022-10-31T05:30:17;11.77;;;6.70;;
51030;SDS011;37058;41.442;23.240;2022-10-31T05:32:47;9.50;;;7.30;;
51030;SDS011;37058;41.442;23.240;2022-10-31T05:35:16;12.87;;;7.77;;
51030;SDS011;37058;41.442;23.240;2022-10-31T05:37:47;22.13;;;7.50;;
51030;SDS011;37058;41.442;23.240;2022-10-31T05:40:14;14.63;;;7.40;;
51030;SDS011;37058;41.442;23.240;2022-10-31T05:42:42;13.40;;;8.17;;
51030;SDS011;37058;41.442;23.240;2022-10-31T05:45:09;13.47;;;8.60;;
51030;SDS011;37058;41.442;23.240;2022-10-31T05:47:38;18.33;;;9.20;;
51030;SDS011;37058;41.442;23.240;2022-10-31T05:50:04;15.33;;;9.70;;
51030;SDS011;37058;41.442;23.240;2022-10-31T05:52:31;20.17;;;10.20;;
51030;SDS011;37058;41.442;23.240;2022-10-31T05:54:58;22.50;;;13.33;;
51030;SDS011;37058;41.442;23.240;2022-10-31T05:57:23;16.90;;;10.10;;
51030;SDS011;37058;41.442;23.240;2022-10-31T05:59:49;21.73;;;11.43;;
51030;SDS011;37058;41.442;23.240;2022-10-31T06:02:21;13.40;;;7.67;;
51030;SDS011;37058;41.442;23.240;2022-10-31T06:04:47;16.23;;;8.03;;
51030;SDS011;37058;41.442;23.240;2022-10-31T06:07:13;26.50;;;15.30;;
51030;SDS011;37058;41.442;23.240;2022-10-31T06:09:39;12.23;;;8.87;;
51030;SDS011;37058;41.442;23.240;2022-10-31T06:12:05;19.70;;;8.63;;
51030;SDS011;37058;41.442;23.240;2022-10-31T06:14:31;17.13;;;9.40;;
51030;SDS011;37058;41.442;23.240;2022-10-31T06:16:56;15.77;;;8.37;;
51030;SDS011;37058;41.442;23.240;2022-10-31T06:19:22;14.60;;;9.10;;
51030;SDS011;37058;41.442;23.240;2022-10-31T06:21:48;26.00;;;10.43;;
51030;SDS011;37058;41.442;23.240;2022-10-31T06:24:14;19.53;;;9.43;;
51030;SDS011;37058;41.442;23.240;2022-10-31T06:26:40;16.77;;;9.53;;
51030;SDS011;37058;41.442;23.240;2022-10-31T06:29:06;12.73;;;8.63;;
51030;SDS011;37058;41.442;23.240;2022-10-31T06:31:32;13.37;;;8.40;;
51030;SDS011;37058;41.442;23.240;2022-10-31T06:33:58;10.93;;;8.03;;
51030;SDS011;37058;41.442;23.240;2022-10-31T06:36:24;12.67;;;7.63;;
51030;SDS011;37058;41.442;23.240;2022-10-31T06:38:49;10.27;;;6.90;;
51030;SDS011;37058;41.442;23.240;2022-10-31T06:41:15;12.67;;;7.60;;
51030;SDS011;37058;41.442;23.240;2022-10-31T06:43:41;12.17;;;6.27;;
51030;SDS011;37058;41.442;23.240;2022-10-31T06:46:07;12.03;;;6.87;;
51030;SDS011;37058;41.442;23.240;2022-10-31T06:48:33;12.77;;;7.23;;
51030;SDS011;37058;41.442;23.240;2022-10-31T06:51:00;16.40;;;7.07;;
51030;SDS011;37058;41.442;23.240;2022-10-31T06:53:27;10.18;;;7.07;;
51030;SDS011;37058;41.442;23.240;2022-10-31T06:55:57;12.30;;;7.45;;
51030;SDS011;37058;41.442;23.240;2022-10-31T06:58:23;13.03;;;7.03;;
51030;SDS011;37058;41.442;23.240;2022-10-31T07:00:49;9.50;;;6.07;;
51030;SDS011;37058;41.442;23.240;2022-10-31T07:03:15;10.07;;;6.78;;
51030;SDS011;37058;41.442;23.240;2022-10-31T07:05:41;10.13;;;6.07;;
51030;SDS011;37058;41.442;23.240;2022-10-31T07:08:09;11.10;;;5.85;;
51030;SDS011;37058;41.442;23.240;2022-10-31T07:10:37;10.10;;;6.60;;
51030;SDS011;37058;41.442;23.240;2022-10-31T07:13:06;9.00;;;5.72;;
51030;SDS011;37058;41.442;23.240;2022-10-31T07:15:39;11.73;;;6.88;;
51030;SDS011;37058;41.442;23.240;2022-10-31T07:18:07;8.50;;;5.72;;
51030;SDS011;37058;41.442;23.240;2022-10-31T07:20:34;10.63;;;6.13;;
51030;SDS011;37058;41.442;23.240;2022-10-31T07:23:00;12.07;;;6.40;;
51030;SDS011;37058;41.442;23.240;2022-10-31T07:25:27;9.60;;;6.10;;
51030;SDS011;37058;41.442;23.240;2022-10-31T07:27:53;9.95;;;6.03;;
51030;SDS011;37058;41.442;23.240;2022-10-31T07:30:19;12.43;;;7.32;;
51030;SDS011;37058;41.442;23.240;2022-10-31T07:32:49;17.52;;;9.63;;
51030;SDS011;37058;41.442;23.240;2022-10-31T07:35:23;7.80;;;6.05;;
51030;SDS011;37058;41.442;23.240;2022-10-31T07:37:52;9.98;;;6.40;;
51030;SDS011;37058;41.442;23.240;2022-10-31T07:40:18;10.13;;;7.30;;
51030;SDS011;37058;41.442;23.240;2022-10-31T07:42:47;10.27;;;6.75;;
51030;SDS011;37058;41.442;23.240;2022-10-31T07:45:17;14.40;;;7.97;;
51030;SDS011;37058;41.442;23.240;2022-10-31T07:47:54;12.65;;;8.18;;
51030;SDS011;37058;41.442;23.240;2022-10-31T07:50:20;11.82;;;7.93;;
51030;SDS011;37058;41.442;23.240;2022-10-31T07:53:11;14.15;;;7.38;;
51030;SDS011;37058;41.442;23.240;2022-10-31T07:55:37;11.73;;;8.18;;
51030;SDS011;37058;41.442;23.240;2022-10-31T07:58:07;15.23;;;8.32;;
51030;SDS011;37058;41.442;23.240;2022-10-31T08:00:37;17.23;;;8.43;;
51030;SDS011;37058;41.442;23.240;2022-10-31T08:03:07;11.40;;;7.30;;
51030;SDS011;37058;41.442;23.240;2022-10-31T08:05:35;7.68;;;6.25;;
51030;SDS011;37058;41.442;23.240;2022-10-31T08:08:05;11.25;;;6.97;;
51030;SDS011;37058;41.442;23.240;2022-10-31T08:10:31;8.75;;;5.50;;
51030;SDS011;37058;41.442;23.240;2022-10-31T08:12:59;7.43;;;4.55;;
51030;SDS011;37058;41.442;23.240;2022-10-31T08:15:28;9.73;;;5.40;;
51030;SDS011;37058;41.442;23.240;2022-10-31T08:17:55;10.18;;;5.15;;
51030;SDS011;37058;41.442;23.240;2022-10-31T08:20:21;8.05;;;5.50;;
51030;SDS011;37058;41.442;23.240;2022-10-31T08:22:54;9.73;;;5.80;;
51030;SDS011;37058;41.442;23.240;2022-10-31T08:25:26;8.10;;;4.78;;
51030;SDS011;37058;41.442;23.240;2022-10-31T08:27:55;6.78;;;4.53;;
51030;SDS011;37058;41.442;23.240;2022-10-31T08:30:22;7.72;;;4.78;;
51030;SDS011;37058;41.442;23.240;2022-10-31T08:33:28;19.50;;;6.13;;
51030;SDS011;37058;41.442;23.240;2022-10-31T08:35:47;12.18;;;6.15;;
51030;SDS011;37058;41.442;23.240;2022-10-31T08:38:13;19.17;;;8.13;;
51030;SDS011;37058;41.442;23.240;2022-10-31T08:40:39;26.55;;;15.10;;
51030;SDS011;37058;41.442;23.240;2022-10-31T08:43:06;22.85;;;11.10;;
51030;SDS011;37058;41.442;23.240;2022-10-31T08:45:39;17.65;;;9.05;;
51030;SDS011;37058;41.442;23.240;2022-10-31T08:48:09;10.48;;;6.45;;
51030;SDS011;37058;41.442;23.240;2022-10-31T08:50:38;16.52;;;5.13;;
51030;SDS011;37058;41.442;23.240;2022-10-31T08:53:05;10.63;;;5.30;;
51030;SDS011;37058;41.442;23.240;2022-10-31T08:55:38;10.60;;;5.53;;
51030;SDS011;37058;41.442;23.240;2022-10-31T08:58:06;12.23;;;4.93;;
51030;SDS011;37058;41.442;23.240;2022-10-31T09:00:38;16.70;;;7.75;;
51030;SDS011;37058;41.442;23.240;2022-10-31T09:03:06;9.35;;;5.35;;
51030;SDS011;37058;41.442;23.240;2022-10-31T09:05:37;8.02;;;5.43;;
51030;SDS011;37058;41.442;23.240;2022-10-31T09:08:04;9.70;;;4.50;;
51030;SDS011;37058;41.442;23.240;2022-10-31T09:10:32;9.05;;;4.97;;
51030;SDS011;37058;41.442;23.240;2022-10-31T09:13:01;8.10;;;4.73;;
51030;SDS011;37058;41.442;23.240;2022-10-31T09:15:37;7.07;;;3.80;;
51030;SDS011;37058;41.442;23.240;2022-10-31T09:18:07;7.05;;;3.83;;
51030;SDS011;37058;41.442;23.240;2022-10-31T09:20:34;7.40;;;4.35;;
51030;SDS011;37058;41.442;23.240;2022-10-31T09:23:06;11.57;;;4.15;;
51030;SDS011;37058;41.442;23.240;2022-10-31T09:25:35;23.98;;;12.15;;
51030;SDS011;37058;41.442;23.240;2022-10-31T09:28:02;8.27;;;5.60;;
51030;SDS011;37058;41.442;23.240;2022-10-31T09:30:30;4.55;;;2.75;;
51030;SDS011;37058;41.442;23.240;2022-10-31T09:33:03;4.85;;;2.92;;
51030;SDS011;37058;41.442;23.240;2022-10-31T09:35:38;5.93;;;2.33;;
51030;SDS011;37058;41.442;23.240;2022-10-31T09:38:06;4.50;;;1.95;;
51030;SDS011;37058;41.442;23.240;2022-10-31T09:40:55;7.05;;;2.47;;
51030;SDS011;37058;41.442;23.240;2022-10-31T09:44:17;5.43;;;2.50;;
51030;SDS011;37058;41.442;23.240;2022-10-31T09:47:00;5.45;;;1.48;;
51030;SDS011;37058;41.442;23.240;2022-10-31T09:52:29;3.08;;;1.45;;
51030;SDS011;37058;41.442;23.240;2022-10-31T09:54:59;3.53;;;1.70;;
51030;SDS011;37058;41.442;23.240;2022-10-31T09:57:58;4.40;;;1.92;;
51030;SDS011;37058;41.442;23.240;2022-10-31T10:00:26;2.90;;;1.73;;
51030;SDS011;37058;41.442;23.240;2022-10-31T10:08:44;5.43;;;2.70;;
51030;SDS011;37058;41.442;23.240;2022-10-31T10:20:21;2.97;;;1.65;;
51030;SDS011;37058;41.442;23.240;2022-10-31T10:25:38;4.45;;;2.20;;
51030;SDS011;37058;41.442;23.240;2022-10-31T10:31:11;3.42;;;1.80;;
51030;SDS011;37058;41.442;23.240;2022-10-31T10:36:58;6.43;;;2.08;;
51030;SDS011;37058;41.442;23.240;2022-10-31T10:42:11;8.35;;;2.63;;
51030;SDS011;37058;41.442;23.240;2022-10-31T10:44:58;4.90;;;1.75;;
51030;SDS011;37058;41.442;23.240;2022-10-31T10:47:59;2.60;;;1.60;;
51030;SDS011;37058;41.442;23.240;2022-10-31T10:50:42;3.17;;;1.58;;
51030;SDS011;37058;41.442;23.240;2022-10-31T10:56:30;6.28;;;1.60;;
51030;SDS011;37058;41.442;23.240;2022-10-31T10:59:19;5.35;;;2.03;;
51030;SDS011;37058;41.442;23.240;2022-10-31T11:01:48;4.78;;;2.03;;
51030;SDS011;37058;41.442;23.240;2022-10-31T11:07:06;2.95;;;1.48;;
51030;SDS011;37058;41.442;23.240;2022-10-31T11:09:35;6.93;;;2.40;;
51030;SDS011;37058;41.442;23.240;2022-10-31T11:12:22;7.20;;;1.63;;
51030;SDS011;37058;41.442;23.240;2022-10-31T11:15:01;3.40;;;1.77;;
51030;SDS011;37058;41.442;23.240;2022-10-31T11:17:52;5.40;;;2.00;;
51030;SDS011;37058;41.442;23.240;2022-10-31T11:20:25;3.80;;;1.83;;
51030;SDS011;37058;41.442;23.240;2022-10-31T11:23:00;7.43;;;2.40;;
51030;SDS011;37058;41.442;23.240;2022-10-31T11:25:50;4.43;;;1.88;;
51030;SDS011;37058;41.442;23.240;2022-10-31T11:28:25;3.92;;;1.55;;
51030;SDS011;37058;41.442;23.240;2022-10-31T11:33:49;3.08;;;1.45;;
51030;SDS011;37058;41.442;23.240;2022-10-31T11:36:29;8.70;;;1.92;;
51030;SDS011;37058;41.442;23.240;2022-10-31T11:39:03;8.57;;;2.63;;
51030;SDS011;37058;41.442;23.240;2022-10-31T11:41:40;6.60;;;2.20;;
51030;SDS011;37058;41.442;23.240;2022-10-31T11:46:56;4.40;;;2.33;;
51030;SDS011;37058;41.442;23.240;2022-10-31T11:49:34;3.42;;;1.67;;
51030;SDS011;37058;41.442;23.240;2022-10-31T11:52:06;3.88;;;2.38;;
51030;SDS011;37058;41.442;23.240;2022-10-31T11:54:46;4.80;;;2.28;;
51030;SDS011;37058;41.442;23.240;2022-10-31T11:57:26;4.30;;;1.38;;
51030;SDS011;37058;41.442;23.240;2022-10-31T11:59:59;5.45;;;1.83;;
51030;SDS011;37058;41.442;23.240;2022-10-31T12:02:30;2.65;;;1.50;;
51030;SDS011;37058;41.442;23.240;2022-10-31T12:05:02;2.38;;;1.30;;
51030;SDS011;37058;41.442;23.240;2022-10-31T12:07:58;6.30;;;1.55;;
51030;SDS011;37058;41.442;23.240;2022-10-31T12:10:26;2.70;;;1.35;;
51030;SDS011;37058;41.442;23.240;2022-10-31T12:16:13;3.05;;;1.20;;
51030;SDS011;37058;41.442;23.240;2022-10-31T12:26:58;5.63;;;1.50;;
51030;SDS011;37058;41.442;23.240;2022-10-31T12:45:59;3.63;;;2.22;;
51030;SDS011;37058;41.442;23.240;2022-10-31T13:00:07;20.85;;;2.65;;
51030;SDS011;37058;41.442;23.240;2022-10-31T13:16:33;2.17;;;1.15;;
51030;SDS011;37058;41.442;23.240;2022-10-31T13:19:05;7.47;;;1.73;;
51030;SDS011;37058;41.442;23.240;2022-10-31T13:22:22;3.90;;;1.63;;
51030;SDS011;37058;41.442;23.240;2022-10-31T13:24:56;4.28;;;1.45;;
51030;SDS011;37058;41.442;23.240;2022-10-31T13:27:53;5.43;;;1.63;;
51030;SDS011;37058;41.442;23.240;2022-10-31T13:30:37;3.53;;;1.50;;
51030;SDS011;37058;41.442;23.240;2022-10-31T13:36:45;3.55;;;2.05;;
51030;SDS011;37058;41.442;23.240;2022-10-31T13:38:59;5.85;;;1.90;;
51030;SDS011;37058;41.442;23.240;2022-10-31T13:45:15;6.25;;;1.63;;
51030;SDS011;37058;41.442;23.240;2022-10-31T13:47:54;3.78;;;1.88;;
51030;SDS011;37058;41.442;23.240;2022-10-31T13:51:02;3.58;;;1.65;;
51030;SDS011;37058;41.442;23.240;2022-10-31T13:56:40;2.00;;;1.42;;
51030;SDS011;37058;41.442;23.240;2022-10-31T14:01:54;4.95;;;1.80;;
51030;SDS011;37058;41.442;23.240;2022-10-31T14:04:37;7.68;;;2.50;;
51030;SDS011;37058;41.442;23.240;2022-10-31T14:07:13;7.65;;;3.92;;
51030;SDS011;37058;41.442;23.240;2022-10-31T14:09:53;5.70;;;2.75;;
51030;SDS011;37058;41.442;23.240;2022-10-31T14:15:12;6.65;;;3.22;;
51030;SDS011;37058;41.442;23.240;2022-10-31T14:17:51;5.03;;;2.90;;
51030;SDS011;37058;41.442;23.240;2022-10-31T14:20:25;6.40;;;3.30;;
51030;SDS011;37058;41.442;23.240;2022-10-31T14:25:53;5.93;;;3.70;;
51030;SDS011;37058;41.442;23.240;2022-10-31T14:28:37;8.45;;;3.33;;
51030;SDS011;37058;41.442;23.240;2022-10-31T14:31:21;4.82;;;2.72;;
51030;SDS011;37058;41.442;23.240;2022-10-31T14:40:15;7.68;;;2.70;;
51030;SDS011;37058;41.442;23.240;2022-10-31T14:46:14;6.07;;;1.80;;
51030;SDS011;37058;41.442;23.240;2022-10-31T14:48:52;4.47;;;2.97;;
51030;SDS011;37058;41.442;23.240;2022-10-31T14:51:50;8.43;;;3.80;;
51030;SDS011;37058;41.442;23.240;2022-10-31T14:54:25;7.40;;;2.80;;
51030;SDS011;37058;41.442;23.240;2022-10-31T14:57:05;4.90;;;2.33;;
51030;SDS011;37058;41.442;23.240;2022-10-31T14:59:41;11.55;;;3.33;;
51030;SDS011;37058;41.442;23.240;2022-10-31T15:02:24;15.38;;;3.88;;
51030;SDS011;37058;41.442;23.240;2022-10-31T15:04:59;14.82;;;2.88;;
51030;SDS011;37058;41.442;23.240;2022-10-31T15:07:27;14.30;;;2.80;;
51030;SDS011;37058;41.442;23.240;2022-10-31T15:10:00;7.65;;;2.92;;
51030;SDS011;37058;41.442;23.240;2022-10-31T15:12:43;9.57;;;4.07;;
51030;SDS011;37058;41.442;23.240;2022-10-31T15:15:19;11.82;;;4.20;;
51030;SDS011;37058;41.442;23.240;2022-10-31T15:17:55;6.20;;;2.95;;
51030;SDS011;37058;41.442;23.240;2022-10-31T15:20:27;9.88;;;2.80;;
51030;SDS011;37058;41.442;23.240;2022-10-31T15:22:58;13.05;;;3.80;;
51030;SDS011;37058;41.442;23.240;2022-10-31T15:25:25;7.15;;;3.08;;
51030;SDS011;37058;41.442;23.240;2022-10-31T15:27:57;7.90;;;2.53;;
51030;SDS011;37058;41.442;23.240;2022-10-31T15:30:23;11.63;;;3.47;;
51030;SDS011;37058;41.442;23.240;2022-10-31T15:32:53;7.97;;;4.03;;
51030;SDS011;37058;41.442;23.240;2022-10-31T15:35:27;13.95;;;5.45;;
51030;SDS011;37058;41.442;23.240;2022-10-31T15:37:56;14.70;;;5.20;;
51030;SDS011;37058;41.442;23.240;2022-10-31T15:40:24;17.63;;;6.10;;
51030;SDS011;37058;41.442;23.240;2022-10-31T15:43:02;14.35;;;5.20;;
51030;SDS011;37058;41.442;23.240;2022-10-31T15:45:31;10.77;;;5.93;;
51030;SDS011;37058;41.442;23.240;2022-10-31T15:48:01;11.10;;;5.97;;
51030;SDS011;37058;41.442;23.240;2022-10-31T15:50:55;9.90;;;4.13;;
51030;SDS011;37058;41.442;23.240;2022-10-31T15:53:25;9.60;;;3.28;;
51030;SDS011;37058;41.442;23.240;2022-10-31T15:55:57;18.27;;;8.85;;
51030;SDS011;37058;41.442;23.240;2022-10-31T15:58:32;14.00;;;3.92;;
51030;SDS011;37058;41.442;23.240;2022-10-31T16:01:27;6.65;;;2.85;;
51030;SDS011;37058;41.442;23.240;2022-10-31T16:06:29;6.60;;;3.33;;
51030;SDS011;37058;41.442;23.240;2022-10-31T16:08:57;12.35;;;3.10;;
51030;SDS011;37058;41.442;23.240;2022-10-31T16:11:24;20.60;;;5.50;;
51030;SDS011;37058;41.442;23.240;2022-10-31T16:16:41;9.40;;;3.08;;
51030;SDS011;37058;41.442;23.240;2022-10-31T16:19:24;12.20;;;5.05;;
51030;SDS011;37058;41.442;23.240;2022-10-31T16:22:03;6.28;;;3.35;;
51030;SDS011;37058;41.442;23.240;2022-10-31T16:24:46;16.60;;;5.90;;
51030;SDS011;37058;41.442;23.240;2022-10-31T16:27:35;14.18;;;4.55;;
51030;SDS011;37058;41.442;23.240;2022-10-31T16:30:03;12.77;;;6.03;;
51030;SDS011;37058;41.442;23.240;2022-10-31T16:38:57;18.90;;;9.38;;
51030;SDS011;37058;41.442;23.240;2022-10-31T16:41:23;28.45;;;12.65;;
51030;SDS011;37058;41.442;23.240;2022-10-31T16:43:50;20.48;;;9.75;;
51030;SDS011;37058;41.442;23.240;2022-10-31T16:46:22;21.05;;;9.65;;
51030;SDS011;37058;41.442;23.240;2022-10-31T16:48:52;11.13;;;6.93;;
51030;SDS011;37058;41.442;23.240;2022-10-31T16:51:19;14.90;;;6.10;;
51030;SDS011;37058;41.442;23.240;2022-10-31T16:53:45;13.50;;;7.22;;
51030;SDS011;37058;41.442;23.240;2022-10-31T16:56:15;22.75;;;9.32;;
51030;SDS011;37058;41.442;23.240;2022-10-31T16:58:53;47.80;;;29.05;;
51030;SDS011;37058;41.442;23.240;2022-10-31T17:01:19;46.05;;;21.15;;
51030;SDS011;37058;41.442;23.240;2022-10-31T17:03:44;32.78;;;15.38;;
51030;SDS011;37058;41.442;23.240;2022-10-31T17:06:12;33.03;;;13.48;;
51030;SDS011;37058;41.442;23.240;2022-10-31T17:08:38;25.80;;;9.52;;
51030;SDS011;37058;41.442;23.240;2022-10-31T17:11:05;22.60;;;10.90;;
51030;SDS011;37058;41.442;23.240;2022-10-31T17:13:33;19.23;;;12.88;;
51030;SDS011;37058;41.442;23.240;2022-10-31T17:16:00;35.20;;;14.68;;
51030;SDS011;37058;41.442;23.240;2022-10-31T17:18:27;26.25;;;13.70;;
51030;SDS011;37058;41.442;23.240;2022-10-31T17:20:55;22.90;;;12.48;;
51030;SDS011;37058;41.442;23.240;2022-10-31T17:23:23;15.15;;;8.43;;
51030;SDS011;37058;41.442;23.240;2022-10-31T17:25:50;14.77;;;7.32;;
51030;SDS011;37058;41.442;23.240;2022-10-31T17:28:16;11.52;;;6.78;;
51030;SDS011;37058;41.442;23.240;2022-10-31T17:30:42;7.78;;;4.35;;
51030;SDS011;37058;41.442;23.240;2022-10-31T17:33:10;9.05;;;4.57;;
51030;SDS011;37058;41.442;23.240;2022-10-31T17:35:38;6.75;;;2.75;;
51030;SDS011;37058;41.442;23.240;2022-10-31T17:38:04;23.02;;;8.82;;
51030;SDS011;37058;41.442;23.240;2022-10-31T17:40:30;20.10;;;10.57;;
51030;SDS011;37058;41.442;23.240;2022-10-31T17:42:56;25.95;;;11.93;;
51030;SDS011;37058;41.442;23.240;2022-10-31T17:45:23;18.90;;;9.98;;
51030;SDS011;37058;41.442;23.240;2022-10-31T17:47:51;18.95;;;9.73;;
51030;SDS011;37058;41.442;23.240;2022-10-31T17:50:22;18.52;;;9.30;;
51030;SDS011;37058;41.442;23.240;2022-10-31T17:52:49;29.05;;;19.05;;